sensor_id;sensor_type;location;lat;lon;timestamp;P1;durP1;ratioP1;P2;durP2;ratioP2
65982;SDS011;52740;40.620;-8.640;2022-07-09T00:01:56;12.23;;;3.63;;
65982;SDS011;52740;40.620;-8.640;2022-07-09T00:03:57;8.20;;;3.67;;
65982;SDS011;52740;40.620;-8.640;2022-07-09T00:05:58;5.72;;;3.58;;
65982;SDS011;52740;40.620;-8.640;2022-07-09T00:07:58;14.43;;;4.25;;
65982;SDS011;52740;40.620;-8.640;2022-07-09T00:09:59;11.43;;;4.32;;
65982;SDS011;52740;40.620;-8.640;2022-07-09T00:12:00;14.32;;;5.13;;
65982;SDS011;52740;40.620;-8.640;2022-07-09T00:14:00;17.42;;;3.67;;
65982;SDS011;52740;40.620;-8.640;2022-07-09T00:16:01;12.38;;;4.55;;
65982;SDS011;52740;40.620;-8.640;2022-07-09T00:18:02;11.95;;;5.20;;
65982;SDS011;52740;40.620;-8.640;2022-07-09T00:20:03;10.27;;;3.72;;
65982;SDS011;52740;40.620;-8.640;2022-07-09T00:22:05;10.75;;;4.05;;
65982;SDS011;52740;40.620;-8.640;2022-07-09T00:24:06;12.65;;;4.25;;
65982;SDS011;52740;40.620;-8.640;2022-07-09T00:26:06;7.93;;;4.00;;
65982;SDS011;52740;40.620;-8.640;2022-07-09T00:28:07;10.23;;;4.78;;
65982;SDS011;52740;40.620;-8.640;2022-07-09T00:30:08;5.65;;;4.35;;
65982;SDS011;52740;40.620;-8.640;2022-07-09T00:32:09;8.93;;;3.83;;
65982;SDS011;52740;40.620;-8.640;2022-07-09T00:34:10;8.02;;;4.15;;
65982;SDS011;52740;40.620;-8.640;2022-07-09T00:36:10;10.23;;;3.78;;
65982;SDS011;52740;40.620;-8.640;2022-07-09T00:38:11;11.05;;;3.95;;
65982;SDS011;52740;40.620;-8.640;2022-07-09T00:40:12;9.13;;;3.72;;
65982;SDS011;52740;40.620;-8.640;2022-07-09T00:42:12;8.70;;;3.70;;
65982;SDS011;52740;40.620;-8.640;2022-07-09T00:44:13;10.60;;;4.25;;
65982;SDS011;52740;40.620;-8.640;2022-07-09T00:46:14;17.70;;;5.32;;
65982;SDS011;52740;40.620;-8.640;2022-07-09T00:48:16;14.30;;;4.20;;
65982;SDS011;52740;40.620;-8.640;2022-07-09T00:50:17;7.85;;;3.80;;
65982;SDS011;52740;40.620;-8.640;2022-07-09T00:52:18;14.75;;;4.78;;
65982;SDS011;52740;40.620;-8.640;2022-07-09T00:54:19;10.75;;;4.72;;
65982;SDS011;52740;40.620;-8.640;2022-07-09T00:56:20;10.82;;;4.60;;
65982;SDS011;52740;40.620;-8.640;2022-07-09T00:58:21;7.28;;;4.30;;
65982;SDS011;52740;40.620;-8.640;2022-07-09T01:00:22;9.18;;;4.22;;
65982;SDS011;52740;40.620;-8.640;2022-07-09T01:02:23;10.90;;;4.55;;
65982;SDS011;52740;40.620;-8.640;2022-07-09T01:04:24;10.75;;;3.85;;
65982;SDS011;52740;40.620;-8.640;2022-07-09T01:06:25;7.22;;;3.97;;
65982;SDS011;52740;40.620;-8.640;2022-07-09T01:08:26;9.35;;;3.85;;
65982;SDS011;52740;40.620;-8.640;2022-07-09T01:10:26;7.80;;;3.67;;
65982;SDS011;52740;40.620;-8.640;2022-07-09T01:12:27;6.68;;;4.40;;
65982;SDS011;52740;40.620;-8.640;2022-07-09T01:14:28;7.43;;;4.03;;
65982;SDS011;52740;40.620;-8.640;2022-07-09T01:16:35;9.00;;;4.50;;
65982;SDS011;52740;40.620;-8.640;2022-07-09T01:18:40;10.00;;;4.28;;
65982;SDS011;52740;40.620;-8.640;2022-07-09T01:20:41;10.40;;;5.13;;
65982;SDS011;52740;40.620;-8.640;2022-07-09T01:22:41;11.00;;;4.47;;
65982;SDS011;52740;40.620;-8.640;2022-07-09T01:24:42;8.38;;;4.80;;
65982;SDS011;52740;40.620;-8.640;2022-07-09T01:26:43;8.13;;;4.35;;
65982;SDS011;52740;40.620;-8.640;2022-07-09T01:28:44;13.32;;;4.68;;
65982;SDS011;52740;40.620;-8.640;2022-07-09T01:30:44;9.38;;;4.43;;
65982;SDS011;52740;40.620;-8.640;2022-07-09T01:32:45;11.13;;;4.45;;
65982;SDS011;52740;40.620;-8.640;2022-07-09T01:34:46;7.63;;;4.72;;
65982;SDS011;52740;40.620;-8.640;2022-07-09T01:36:46;10.77;;;4.47;;
65982;SDS011;52740;40.620;-8.640;2022-07-09T01:38:47;8.43;;;4.57;;
65982;SDS011;52740;40.620;-8.640;2022-07-09T01:40:48;6.57;;;4.28;;
65982;SDS011;52740;40.620;-8.640;2022-07-09T01:42:49;9.73;;;4.88;;
65982;SDS011;52740;40.620;-8.640;2022-07-09T01:44:50;9.77;;;3.95;;
65982;SDS011;52740;40.620;-8.640;2022-07-09T01:46:51;15.00;;;4.65;;
65982;SDS011;52740;40.620;-8.640;2022-07-09T01:48:51;12.15;;;6.10;;
65982;SDS011;52740;40.620;-8.640;2022-07-09T01:50:52;12.02;;;3.97;;
65982;SDS011;52740;40.620;-8.640;2022-07-09T01:52:54;9.25;;;4.57;;
65982;SDS011;52740;40.620;-8.640;2022-07-09T01:54:54;19.88;;;5.25;;
65982;SDS011;52740;40.620;-8.640;2022-07-09T01:56:55;13.35;;;4.35;;
65982;SDS011;52740;40.620;-8.640;2022-07-09T01:58:56;8.70;;;4.70;;
65982;SDS011;52740;40.620;-8.640;2022-07-09T02:00:57;10.63;;;4.55;;
65982;SDS011;52740;40.620;-8.640;2022-07-09T02:02:57;10.93;;;4.38;;
65982;SDS011;52740;40.620;-8.640;2022-07-09T02:04:58;8.20;;;4.47;;
65982;SDS011;52740;40.620;-8.640;2022-07-09T02:06:59;9.27;;;4.43;;
65982;SDS011;52740;40.620;-8.640;2022-07-09T02:08:59;10.55;;;4.05;;
65982;SDS011;52740;40.620;-8.640;2022-07-09T02:11:00;9.25;;;4.35;;
65982;SDS011;52740;40.620;-8.640;2022-07-09T02:13:01;12.68;;;4.60;;
65982;SDS011;52740;40.620;-8.640;2022-07-09T02:15:02;9.95;;;4.53;;
65982;SDS011;52740;40.620;-8.640;2022-07-09T02:17:02;8.35;;;4.78;;
65982;SDS011;52740;40.620;-8.640;2022-07-09T02:19:03;11.73;;;5.38;;
65982;SDS011;52740;40.620;-8.640;2022-07-09T02:21:04;8.95;;;4.95;;
65982;SDS011;52740;40.620;-8.640;2022-07-09T02:23:06;6.93;;;4.85;;
65982;SDS011;52740;40.620;-8.640;2022-07-09T02:25:08;10.43;;;4.88;;
65982;SDS011;52740;40.620;-8.640;2022-07-09T02:27:09;9.02;;;5.43;;
65982;SDS011;52740;40.620;-8.640;2022-07-09T02:29:09;13.05;;;5.05;;
65982;SDS011;52740;40.620;-8.640;2022-07-09T02:31:10;9.40;;;5.47;;
65982;SDS011;52740;40.620;-8.640;2022-07-09T02:33:12;6.88;;;5.05;;
65982;SDS011;52740;40.620;-8.640;2022-07-09T02:35:13;6.85;;;5.05;;
65982;SDS011;52740;40.620;-8.640;2022-07-09T02:37:13;8.10;;;5.10;;
65982;SDS011;52740;40.620;-8.640;2022-07-09T02:39:14;6.03;;;4.75;;
65982;SDS011;52740;40.620;-8.640;2022-07-09T02:41:15;12.25;;;5.88;;
65982;SDS011;52740;40.620;-8.640;2022-07-09T02:43:16;6.43;;;4.80;;
65982;SDS011;52740;40.620;-8.640;2022-07-09T02:45:16;9.13;;;5.15;;
65982;SDS011;52740;40.620;-8.640;2022-07-09T02:47:17;6.80;;;4.95;;
65982;SDS011;52740;40.620;-8.640;2022-07-09T02:49:18;7.50;;;5.30;;
65982;SDS011;52740;40.620;-8.640;2022-07-09T02:51:18;17.83;;;5.80;;
65982;SDS011;52740;40.620;-8.640;2022-07-09T02:53:19;9.02;;;5.75;;
65982;SDS011;52740;40.620;-8.640;2022-07-09T02:55:20;7.75;;;4.88;;
65982;SDS011;52740;40.620;-8.640;2022-07-09T02:57:21;7.78;;;4.63;;
65982;SDS011;52740;40.620;-8.640;2022-07-09T02:59:22;15.00;;;5.82;;
65982;SDS011;52740;40.620;-8.640;2022-07-09T03:01:22;9.73;;;5.13;;
65982;SDS011;52740;40.620;-8.640;2022-07-09T03:03:23;12.18;;;5.75;;
65982;SDS011;52740;40.620;-8.640;2022-07-09T03:05:24;8.43;;;5.43;;
65982;SDS011;52740;40.620;-8.640;2022-07-09T03:07:25;10.98;;;5.15;;
65982;SDS011;52740;40.620;-8.640;2022-07-09T03:09:25;9.27;;;4.75;;
65982;SDS011;52740;40.620;-8.640;2022-07-09T03:11:26;7.00;;;5.22;;
65982;SDS011;52740;40.620;-8.640;2022-07-09T03:13:27;7.18;;;5.00;;
65982;SDS011;52740;40.620;-8.640;2022-07-09T03:15:27;6.50;;;4.68;;
65982;SDS011;52740;40.620;-8.640;2022-07-09T03:17:28;12.15;;;4.88;;
65982;SDS011;52740;40.620;-8.640;2022-07-09T03:19:28;13.35;;;5.05;;
65982;SDS011;52740;40.620;-8.640;2022-07-09T03:21:29;16.73;;;5.25;;
65982;SDS011;52740;40.620;-8.640;2022-07-09T03:23:30;17.90;;;5.63;;
65982;SDS011;52740;40.620;-8.640;2022-07-09T03:25:31;7.10;;;5.20;;
65982;SDS011;52740;40.620;-8.640;2022-07-09T03:27:32;9.70;;;5.38;;
65982;SDS011;52740;40.620;-8.640;2022-07-09T03:29:34;12.80;;;5.40;;
65982;SDS011;52740;40.620;-8.640;2022-07-09T03:31:34;9.93;;;5.47;;
65982;SDS011;52740;40.620;-8.640;2022-07-09T03:33:35;7.82;;;5.20;;
65982;SDS011;52740;40.620;-8.640;2022-07-09T03:35:36;9.15;;;5.50;;
65982;SDS011;52740;40.620;-8.640;2022-07-09T03:37:39;10.85;;;5.55;;
65982;SDS011;52740;40.620;-8.640;2022-07-09T03:39:39;11.25;;;4.95;;
65982;SDS011;52740;40.620;-8.640;2022-07-09T03:41:40;12.23;;;5.70;;
65982;SDS011;52740;40.620;-8.640;2022-07-09T03:43:41;9.57;;;5.82;;
65982;SDS011;52740;40.620;-8.640;2022-07-09T03:45:42;11.82;;;5.63;;
65982;SDS011;52740;40.620;-8.640;2022-07-09T03:47:43;13.40;;;5.65;;
65982;SDS011;52740;40.620;-8.640;2022-07-09T03:49:43;12.48;;;5.93;;
65982;SDS011;52740;40.620;-8.640;2022-07-09T03:51:44;13.90;;;5.97;;
65982;SDS011;52740;40.620;-8.640;2022-07-09T03:53:45;11.68;;;6.35;;
65982;SDS011;52740;40.620;-8.640;2022-07-09T03:55:46;16.20;;;5.53;;
65982;SDS011;52740;40.620;-8.640;2022-07-09T03:57:46;15.05;;;5.72;;
65982;SDS011;52740;40.620;-8.640;2022-07-09T03:59:47;16.45;;;5.93;;
65982;SDS011;52740;40.620;-8.640;2022-07-09T04:01:47;16.45;;;6.68;;
65982;SDS011;52740;40.620;-8.640;2022-07-09T04:03:48;13.38;;;5.60;;
65982;SDS011;52740;40.620;-8.640;2022-07-09T04:05:49;14.20;;;6.60;;
65982;SDS011;52740;40.620;-8.640;2022-07-09T04:07:50;9.88;;;7.10;;
65982;SDS011;52740;40.620;-8.640;2022-07-09T04:09:50;15.93;;;6.88;;
65982;SDS011;52740;40.620;-8.640;2022-07-09T04:11:51;18.52;;;7.95;;
65982;SDS011;52740;40.620;-8.640;2022-07-09T04:13:52;9.95;;;7.38;;
65982;SDS011;52740;40.620;-8.640;2022-07-09T04:15:53;13.40;;;7.78;;
65982;SDS011;52740;40.620;-8.640;2022-07-09T04:17:53;10.05;;;6.93;;
65982;SDS011;52740;40.620;-8.640;2022-07-09T04:19:54;19.58;;;8.10;;
65982;SDS011;52740;40.620;-8.640;2022-07-09T04:21:55;12.60;;;6.90;;
65982;SDS011;52740;40.620;-8.640;2022-07-09T04:23:55;14.25;;;7.07;;
65982;SDS011;52740;40.620;-8.640;2022-07-09T04:25:56;12.93;;;7.90;;
65982;SDS011;52740;40.620;-8.640;2022-07-09T04:27:57;18.60;;;6.97;;
65982;SDS011;52740;40.620;-8.640;2022-07-09T04:29:59;13.63;;;6.97;;
65982;SDS011;52740;40.620;-8.640;2022-07-09T04:31:59;14.52;;;6.90;;
65982;SDS011;52740;40.620;-8.640;2022-07-09T04:34:00;13.10;;;7.22;;
65982;SDS011;52740;40.620;-8.640;2022-07-09T04:36:02;13.80;;;7.25;;
65982;SDS011;52740;40.620;-8.640;2022-07-09T04:38:03;13.70;;;6.45;;
65982;SDS011;52740;40.620;-8.640;2022-07-09T04:40:04;12.77;;;7.10;;
65982;SDS011;52740;40.620;-8.640;2022-07-09T04:42:05;13.20;;;7.30;;
65982;SDS011;52740;40.620;-8.640;2022-07-09T04:44:06;16.45;;;6.88;;
65982;SDS011;52740;40.620;-8.640;2022-07-09T04:46:07;15.95;;;7.93;;
65982;SDS011;52740;40.620;-8.640;2022-07-09T04:48:08;13.13;;;7.25;;
65982;SDS011;52740;40.620;-8.640;2022-07-09T04:50:08;15.07;;;8.10;;
65982;SDS011;52740;40.620;-8.640;2022-07-09T04:52:11;14.38;;;7.35;;
65982;SDS011;52740;40.620;-8.640;2022-07-09T04:54:16;15.18;;;6.93;;
65982;SDS011;52740;40.620;-8.640;2022-07-09T04:56:17;15.55;;;7.18;;
65982;SDS011;52740;40.620;-8.640;2022-07-09T04:58:18;13.82;;;7.35;;
65982;SDS011;52740;40.620;-8.640;2022-07-09T05:00:19;8.88;;;5.97;;
65982;SDS011;52740;40.620;-8.640;2022-07-09T05:02:20;13.13;;;6.65;;
65982;SDS011;52740;40.620;-8.640;2022-07-09T05:04:20;15.02;;;7.13;;
65982;SDS011;52740;40.620;-8.640;2022-07-09T05:06:21;15.75;;;7.18;;
65982;SDS011;52740;40.620;-8.640;2022-07-09T05:08:22;13.80;;;6.90;;
65982;SDS011;52740;40.620;-8.640;2022-07-09T05:10:22;14.95;;;6.72;;
65982;SDS011;52740;40.620;-8.640;2022-07-09T05:12:23;14.10;;;6.85;;
65982;SDS011;52740;40.620;-8.640;2022-07-09T05:14:24;13.10;;;7.40;;
65982;SDS011;52740;40.620;-8.640;2022-07-09T05:16:24;17.30;;;6.50;;
65982;SDS011;52740;40.620;-8.640;2022-07-09T05:18:25;13.48;;;6.68;;
65982;SDS011;52740;40.620;-8.640;2022-07-09T05:20:26;14.98;;;6.55;;
65982;SDS011;52740;40.620;-8.640;2022-07-09T05:22:27;10.75;;;6.97;;
65982;SDS011;52740;40.620;-8.640;2022-07-09T05:24:28;11.98;;;6.97;;
65982;SDS011;52740;40.620;-8.640;2022-07-09T05:26:29;14.30;;;6.32;;
65982;SDS011;52740;40.620;-8.640;2022-07-09T05:28:30;12.40;;;6.97;;
65982;SDS011;52740;40.620;-8.640;2022-07-09T05:30:30;14.90;;;7.20;;
65982;SDS011;52740;40.620;-8.640;2022-07-09T05:32:37;13.93;;;7.10;;
65982;SDS011;52740;40.620;-8.640;2022-07-09T05:34:38;11.70;;;6.72;;
65982;SDS011;52740;40.620;-8.640;2022-07-09T05:36:38;14.35;;;7.13;;
65982;SDS011;52740;40.620;-8.640;2022-07-09T05:38:39;11.95;;;6.80;;
65982;SDS011;52740;40.620;-8.640;2022-07-09T05:40:40;13.85;;;7.07;;
65982;SDS011;52740;40.620;-8.640;2022-07-09T05:42:40;10.98;;;6.72;;
65982;SDS011;52740;40.620;-8.640;2022-07-09T05:44:41;11.48;;;6.80;;
65982;SDS011;52740;40.620;-8.640;2022-07-09T05:46:42;14.32;;;6.90;;
65982;SDS011;52740;40.620;-8.640;2022-07-09T05:48:43;14.68;;;6.35;;
65982;SDS011;52740;40.620;-8.640;2022-07-09T05:50:43;15.65;;;6.43;;
65982;SDS011;52740;40.620;-8.640;2022-07-09T05:52:44;11.48;;;6.95;;
65982;SDS011;52740;40.620;-8.640;2022-07-09T05:54:45;13.10;;;6.57;;
65982;SDS011;52740;40.620;-8.640;2022-07-09T05:56:46;13.65;;;6.53;;
65982;SDS011;52740;40.620;-8.640;2022-07-09T05:58:47;14.63;;;7.18;;
65982;SDS011;52740;40.620;-8.640;2022-07-09T06:00:48;13.68;;;7.57;;
65982;SDS011;52740;40.620;-8.640;2022-07-09T06:02:49;9.90;;;7.18;;
65982;SDS011;52740;40.620;-8.640;2022-07-09T06:04:49;11.40;;;7.35;;
65982;SDS011;52740;40.620;-8.640;2022-07-09T06:06:50;16.38;;;7.20;;
65982;SDS011;52740;40.620;-8.640;2022-07-09T06:08:51;13.95;;;7.00;;
65982;SDS011;52740;40.620;-8.640;2022-07-09T06:10:52;12.85;;;6.80;;
65982;SDS011;52740;40.620;-8.640;2022-07-09T06:12:53;15.55;;;5.85;;
65982;SDS011;52740;40.620;-8.640;2022-07-09T06:14:53;12.23;;;6.78;;
65982;SDS011;52740;40.620;-8.640;2022-07-09T06:16:54;9.80;;;6.30;;
65982;SDS011;52740;40.620;-8.640;2022-07-09T06:18:55;9.70;;;6.07;;
65982;SDS011;52740;40.620;-8.640;2022-07-09T06:20:56;13.10;;;6.97;;
65982;SDS011;52740;40.620;-8.640;2022-07-09T06:22:57;11.70;;;6.55;;
65982;SDS011;52740;40.620;-8.640;2022-07-09T06:24:58;11.10;;;5.80;;
65982;SDS011;52740;40.620;-8.640;2022-07-09T06:26:59;14.38;;;6.38;;
65982;SDS011;52740;40.620;-8.640;2022-07-09T06:29:00;8.80;;;5.45;;
65982;SDS011;52740;40.620;-8.640;2022-07-09T06:31:00;16.70;;;6.13;;
65982;SDS011;52740;40.620;-8.640;2022-07-09T06:33:01;12.52;;;6.75;;
65982;SDS011;52740;40.620;-8.640;2022-07-09T06:35:02;12.68;;;5.25;;
65982;SDS011;52740;40.620;-8.640;2022-07-09T06:37:03;13.20;;;6.18;;
65982;SDS011;52740;40.620;-8.640;2022-07-09T06:39:04;12.27;;;6.20;;
65982;SDS011;52740;40.620;-8.640;2022-07-09T06:41:24;14.85;;;5.15;;
65982;SDS011;52740;40.620;-8.640;2022-07-09T06:43:25;10.07;;;6.60;;
65982;SDS011;52740;40.620;-8.640;2022-07-09T06:45:27;9.50;;;4.93;;
65982;SDS011;52740;40.620;-8.640;2022-07-09T06:47:28;10.45;;;5.60;;
65982;SDS011;52740;40.620;-8.640;2022-07-09T06:49:29;11.05;;;5.60;;
65982;SDS011;52740;40.620;-8.640;2022-07-09T06:51:30;19.35;;;6.70;;
65982;SDS011;52740;40.620;-8.640;2022-07-09T06:53:30;10.45;;;6.88;;
65982;SDS011;52740;40.620;-8.640;2022-07-09T06:55:31;14.10;;;7.00;;
65982;SDS011;52740;40.620;-8.640;2022-07-09T06:57:32;14.80;;;6.15;;
65982;SDS011;52740;40.620;-8.640;2022-07-09T06:59:33;11.10;;;6.53;;
65982;SDS011;52740;40.620;-8.640;2022-07-09T07:01:34;5.32;;;4.50;;
65982;SDS011;52740;40.620;-8.640;2022-07-09T07:03:34;10.23;;;4.78;;
65982;SDS011;52740;40.620;-8.640;2022-07-09T07:05:35;7.40;;;5.03;;
65982;SDS011;52740;40.620;-8.640;2022-07-09T07:07:36;9.85;;;5.15;;
65982;SDS011;52740;40.620;-8.640;2022-07-09T07:09:37;6.47;;;4.78;;
65982;SDS011;52740;40.620;-8.640;2022-07-09T07:11:37;7.65;;;4.05;;
65982;SDS011;52740;40.620;-8.640;2022-07-09T07:13:38;5.47;;;4.25;;
65982;SDS011;52740;40.620;-8.640;2022-07-09T07:15:39;11.52;;;4.45;;
65982;SDS011;52740;40.620;-8.640;2022-07-09T07:17:39;5.18;;;4.28;;
65982;SDS011;52740;40.620;-8.640;2022-07-09T07:19:40;5.70;;;4.45;;
65982;SDS011;52740;40.620;-8.640;2022-07-09T07:21:41;17.05;;;5.15;;
65982;SDS011;52740;40.620;-8.640;2022-07-09T07:23:42;6.90;;;4.38;;
65982;SDS011;52740;40.620;-8.640;2022-07-09T07:25:42;9.07;;;4.10;;
65982;SDS011;52740;40.620;-8.640;2022-07-09T07:27:43;8.80;;;4.28;;
65982;SDS011;52740;40.620;-8.640;2022-07-09T07:29:44;7.88;;;4.45;;
65982;SDS011;52740;40.620;-8.640;2022-07-09T07:31:44;9.35;;;3.95;;
65982;SDS011;52740;40.620;-8.640;2022-07-09T07:33:45;9.75;;;3.88;;
65982;SDS011;52740;40.620;-8.640;2022-07-09T07:35:46;6.88;;;3.53;;
65982;SDS011;52740;40.620;-8.640;2022-07-09T07:37:47;4.03;;;3.30;;
65982;SDS011;52740;40.620;-8.640;2022-07-09T07:39:48;3.95;;;3.47;;
65982;SDS011;52740;40.620;-8.640;2022-07-09T07:41:48;11.68;;;4.88;;
65982;SDS011;52740;40.620;-8.640;2022-07-09T07:43:49;9.80;;;4.28;;
65982;SDS011;52740;40.620;-8.640;2022-07-09T07:45:50;5.55;;;3.97;;
65982;SDS011;52740;40.620;-8.640;2022-07-09T07:47:51;11.77;;;3.72;;
65982;SDS011;52740;40.620;-8.640;2022-07-09T07:49:54;5.82;;;3.97;;
65982;SDS011;52740;40.620;-8.640;2022-07-09T07:51:55;5.82;;;4.05;;
65982;SDS011;52740;40.620;-8.640;2022-07-09T07:53:55;5.50;;;4.03;;
65982;SDS011;52740;40.620;-8.640;2022-07-09T07:55:56;5.85;;;3.40;;
65982;SDS011;52740;40.620;-8.640;2022-07-09T07:57:57;7.90;;;4.03;;
65982;SDS011;52740;40.620;-8.640;2022-07-09T07:59:57;5.68;;;3.70;;
65982;SDS011;52740;40.620;-8.640;2022-07-09T08:01:58;4.93;;;3.95;;
65982;SDS011;52740;40.620;-8.640;2022-07-09T08:03:59;5.13;;;4.00;;
65982;SDS011;52740;40.620;-8.640;2022-07-09T08:06:00;5.03;;;3.63;;
65982;SDS011;52740;40.620;-8.640;2022-07-09T08:08:00;7.97;;;4.03;;
65982;SDS011;52740;40.620;-8.640;2022-07-09T08:10:01;4.80;;;4.20;;
65982;SDS011;52740;40.620;-8.640;2022-07-09T08:12:02;10.00;;;4.05;;
65982;SDS011;52740;40.620;-8.640;2022-07-09T08:14:03;5.95;;;3.70;;
65982;SDS011;52740;40.620;-8.640;2022-07-09T08:16:05;6.25;;;4.25;;
65982;SDS011;52740;40.620;-8.640;2022-07-09T08:18:06;9.07;;;4.30;;
65982;SDS011;52740;40.620;-8.640;2022-07-09T08:20:12;5.50;;;4.38;;
65982;SDS011;52740;40.620;-8.640;2022-07-09T08:22:12;7.55;;;4.70;;
65982;SDS011;52740;40.620;-8.640;2022-07-09T08:24:13;7.55;;;4.60;;
65982;SDS011;52740;40.620;-8.640;2022-07-09T08:26:14;7.20;;;3.90;;
65982;SDS011;52740;40.620;-8.640;2022-07-09T08:28:14;5.88;;;4.57;;
65982;SDS011;52740;40.620;-8.640;2022-07-09T08:30:15;7.45;;;4.43;;
65982;SDS011;52740;40.620;-8.640;2022-07-09T08:32:16;10.45;;;4.82;;
65982;SDS011;52740;40.620;-8.640;2022-07-09T08:34:17;7.13;;;4.55;;
65982;SDS011;52740;40.620;-8.640;2022-07-09T08:36:18;5.25;;;4.35;;
65982;SDS011;52740;40.620;-8.640;2022-07-09T08:38:19;5.43;;;4.43;;
65982;SDS011;52740;40.620;-8.640;2022-07-09T08:40:20;8.00;;;6.05;;
65982;SDS011;52740;40.620;-8.640;2022-07-09T08:42:21;12.13;;;6.82;;
65982;SDS011;52740;40.620;-8.640;2022-07-09T08:44:22;7.60;;;6.20;;
65982;SDS011;52740;40.620;-8.640;2022-07-09T08:46:29;10.82;;;5.78;;
65982;SDS011;52740;40.620;-8.640;2022-07-09T08:48:33;7.43;;;5.45;;
65982;SDS011;52740;40.620;-8.640;2022-07-09T08:50:35;7.80;;;5.80;;
65982;SDS011;52740;40.620;-8.640;2022-07-09T08:52:36;9.75;;;6.07;;
65982;SDS011;52740;40.620;-8.640;2022-07-09T08:54:40;7.95;;;5.70;;
65982;SDS011;52740;40.620;-8.640;2022-07-09T08:56:43;6.22;;;5.53;;
65982;SDS011;52740;40.620;-8.640;2022-07-09T08:58:43;11.10;;;5.03;;
65982;SDS011;52740;40.620;-8.640;2022-07-09T09:00:44;8.82;;;4.72;;
65982;SDS011;52740;40.620;-8.640;2022-07-09T09:02:47;13.55;;;5.22;;
65982;SDS011;52740;40.620;-8.640;2022-07-09T09:04:48;9.18;;;4.50;;
65982;SDS011;52740;40.620;-8.640;2022-07-09T09:06:49;12.38;;;4.63;;
65982;SDS011;52740;40.620;-8.640;2022-07-09T09:08:53;7.95;;;5.25;;
65982;SDS011;52740;40.620;-8.640;2022-07-09T09:10:54;6.45;;;4.80;;
65982;SDS011;52740;40.620;-8.640;2022-07-09T09:12:55;7.85;;;5.30;;
65982;SDS011;52740;40.620;-8.640;2022-07-09T09:15:04;8.27;;;5.20;;
65982;SDS011;52740;40.620;-8.640;2022-07-09T09:17:09;8.95;;;5.53;;
65982;SDS011;52740;40.620;-8.640;2022-07-09T09:19:12;9.25;;;4.93;;
65982;SDS011;52740;40.620;-8.640;2022-07-09T09:21:13;7.70;;;5.40;;
65982;SDS011;52740;40.620;-8.640;2022-07-09T09:23:15;7.68;;;5.32;;
65982;SDS011;52740;40.620;-8.640;2022-07-09T09:25:17;8.00;;;5.47;;
65982;SDS011;52740;40.620;-8.640;2022-07-09T09:27:26;10.18;;;5.55;;
65982;SDS011;52740;40.620;-8.640;2022-07-09T09:29:28;12.63;;;5.28;;
65982;SDS011;52740;40.620;-8.640;2022-07-09T09:31:30;8.70;;;5.75;;
65982;SDS011;52740;40.620;-8.640;2022-07-09T09:33:31;13.30;;;4.95;;
65982;SDS011;52740;40.620;-8.640;2022-07-09T09:35:35;9.55;;;5.60;;
65982;SDS011;52740;40.620;-8.640;2022-07-09T09:37:42;9.43;;;5.43;;
65982;SDS011;52740;40.620;-8.640;2022-07-09T09:39:49;11.05;;;5.57;;
65982;SDS011;52740;40.620;-8.640;2022-07-09T09:41:52;8.50;;;5.45;;
65982;SDS011;52740;40.620;-8.640;2022-07-09T09:43:55;9.15;;;6.05;;
65982;SDS011;52740;40.620;-8.640;2022-07-09T09:45:57;9.18;;;6.53;;
65982;SDS011;52740;40.620;-8.640;2022-07-09T09:47:59;11.82;;;6.05;;
65982;SDS011;52740;40.620;-8.640;2022-07-09T09:50:00;9.70;;;5.50;;
65982;SDS011;52740;40.620;-8.640;2022-07-09T09:54:11;8.68;;;7.10;;
65982;SDS011;52740;40.620;-8.640;2022-07-09T09:56:13;9.60;;;7.82;;
65982;SDS011;52740;40.620;-8.640;2022-07-09T09:58:15;9.50;;;6.68;;
65982;SDS011;52740;40.620;-8.640;2022-07-09T10:00:16;9.85;;;7.13;;
65982;SDS011;52740;40.620;-8.640;2022-07-09T10:02:16;7.15;;;6.35;;
65982;SDS011;52740;40.620;-8.640;2022-07-09T10:04:19;8.27;;;6.75;;
65982;SDS011;52740;40.620;-8.640;2022-07-09T10:06:21;8.63;;;6.13;;
65982;SDS011;52740;40.620;-8.640;2022-07-09T10:08:23;11.68;;;7.68;;
65982;SDS011;52740;40.620;-8.640;2022-07-09T10:10:23;8.73;;;6.03;;
65982;SDS011;52740;40.620;-8.640;2022-07-09T10:12:28;10.27;;;6.72;;
65982;SDS011;52740;40.620;-8.640;2022-07-09T10:14:31;8.02;;;6.60;;
65982;SDS011;52740;40.620;-8.640;2022-07-09T10:16:40;13.10;;;6.00;;
65982;SDS011;52740;40.620;-8.640;2022-07-09T10:18:53;9.70;;;5.78;;
65982;SDS011;52740;40.620;-8.640;2022-07-09T10:20:57;7.22;;;6.10;;
65982;SDS011;52740;40.620;-8.640;2022-07-09T10:22:58;7.15;;;5.22;;
65982;SDS011;52740;40.620;-8.640;2022-07-09T10:24:59;10.70;;;6.03;;
65982;SDS011;52740;40.620;-8.640;2022-07-09T10:27:06;9.18;;;5.72;;
65982;SDS011;52740;40.620;-8.640;2022-07-09T10:29:24;7.57;;;6.20;;
65982;SDS011;52740;40.620;-8.640;2022-07-09T10:31:25;7.53;;;5.38;;
65982;SDS011;52740;40.620;-8.640;2022-07-09T10:33:34;11.05;;;5.75;;
65982;SDS011;52740;40.620;-8.640;2022-07-09T10:35:44;12.82;;;6.05;;
65982;SDS011;52740;40.620;-8.640;2022-07-09T10:37:52;6.97;;;5.30;;
65982;SDS011;52740;40.620;-8.640;2022-07-09T10:40:15;6.78;;;5.22;;
65982;SDS011;52740;40.620;-8.640;2022-07-09T10:42:22;9.30;;;5.43;;
65982;SDS011;52740;40.620;-8.640;2022-07-09T10:44:28;8.65;;;5.25;;
65982;SDS011;52740;40.620;-8.640;2022-07-09T10:47:17;6.43;;;4.80;;
65982;SDS011;52740;40.620;-8.640;2022-07-09T10:49:19;5.80;;;4.47;;
65982;SDS011;52740;40.620;-8.640;2022-07-09T10:51:21;6.60;;;4.55;;
65982;SDS011;52740;40.620;-8.640;2022-07-09T10:53:27;4.88;;;4.47;;
65982;SDS011;52740;40.620;-8.640;2022-07-09T10:55:30;8.52;;;5.97;;
65982;SDS011;52740;40.620;-8.640;2022-07-09T10:57:31;8.82;;;5.22;;
65982;SDS011;52740;40.620;-8.640;2022-07-09T11:01:35;5.70;;;5.18;;
65982;SDS011;52740;40.620;-8.640;2022-07-09T11:03:36;9.70;;;5.28;;
65982;SDS011;52740;40.620;-8.640;2022-07-09T11:05:44;6.78;;;4.93;;
65982;SDS011;52740;40.620;-8.640;2022-07-09T11:10:00;7.22;;;4.95;;
65982;SDS011;52740;40.620;-8.640;2022-07-09T11:12:00;7.00;;;5.28;;
65982;SDS011;52740;40.620;-8.640;2022-07-09T11:14:01;6.00;;;5.40;;
65982;SDS011;52740;40.620;-8.640;2022-07-09T11:16:02;5.75;;;5.22;;
65982;SDS011;52740;40.620;-8.640;2022-07-09T11:20:05;7.25;;;5.30;;
65982;SDS011;52740;40.620;-8.640;2022-07-09T11:22:06;6.35;;;5.80;;
65982;SDS011;52740;40.620;-8.640;2022-07-09T11:24:14;7.28;;;4.82;;
65982;SDS011;52740;40.620;-8.640;2022-07-09T11:26:16;7.32;;;5.22;;
65982;SDS011;52740;40.620;-8.640;2022-07-09T11:30:25;7.03;;;5.07;;
65982;SDS011;52740;40.620;-8.640;2022-07-09T11:32:28;10.70;;;5.40;;
65982;SDS011;52740;40.620;-8.640;2022-07-09T11:34:31;6.00;;;5.43;;
65982;SDS011;52740;40.620;-8.640;2022-07-09T11:36:40;5.93;;;5.43;;
65982;SDS011;52740;40.620;-8.640;2022-07-09T11:38:46;6.53;;;5.93;;
65982;SDS011;52740;40.620;-8.640;2022-07-09T11:40:58;6.15;;;5.55;;
65982;SDS011;52740;40.620;-8.640;2022-07-09T11:43:00;10.98;;;4.80;;
65982;SDS011;52740;40.620;-8.640;2022-07-09T11:45:01;6.18;;;5.25;;
65982;SDS011;52740;40.620;-8.640;2022-07-09T11:47:11;4.80;;;4.40;;
65982;SDS011;52740;40.620;-8.640;2022-07-09T11:49:18;5.93;;;4.82;;
65982;SDS011;52740;40.620;-8.640;2022-07-09T11:53:32;7.72;;;4.88;;
65982;SDS011;52740;40.620;-8.640;2022-07-09T11:55:33;5.05;;;4.53;;
65982;SDS011;52740;40.620;-8.640;2022-07-09T11:57:36;6.85;;;5.57;;
65982;SDS011;52740;40.620;-8.640;2022-07-09T11:59:38;5.90;;;5.30;;
65982;SDS011;52740;40.620;-8.640;2022-07-09T12:01:38;5.13;;;4.63;;
65982;SDS011;52740;40.620;-8.640;2022-07-09T12:03:45;7.20;;;4.60;;
65982;SDS011;52740;40.620;-8.640;2022-07-09T12:05:50;6.47;;;4.55;;
65982;SDS011;52740;40.620;-8.640;2022-07-09T12:07:51;4.40;;;4.00;;
65982;SDS011;52740;40.620;-8.640;2022-07-09T12:12:00;5.45;;;4.75;;
65982;SDS011;52740;40.620;-8.640;2022-07-09T12:14:01;5.15;;;4.70;;